sensor_id;sensor_type;location;lat;lon;timestamp;temperature;humidity
54158;DHT22;40065;49.894;10.358;2023-01-15T00:03:01;10.70;99.90
54158;DHT22;40065;49.894;10.358;2023-01-15T00:08:03;10.80;99.90
54158;DHT22;40065;49.894;10.358;2023-01-15T00:13:05;10.90;99.90
54158;DHT22;40065;49.894;10.358;2023-01-15T00:18:06;10.90;99.90
54158;DHT22;40065;49.894;10.358;2023-01-15T00:23:08;11.10;99.90
54158;DHT22;40065;49.894;10.358;2023-01-15T00:28:30;11.00;99.90
54158;DHT22;40065;49.894;10.358;2023-01-15T00:33:32;11.10;99.90
54158;DHT22;40065;49.894;10.358;2023-01-15T00:38:33;11.20;99.90
54158;DHT22;40065;49.894;10.358;2023-01-15T00:43:35;11.20;99.90
54158;DHT22;40065;49.894;10.358;2023-01-15T00:48:37;11.20;99.90
54158;DHT22;40065;49.894;10.358;2023-01-15T00:53:40;11.20;99.90
54158;DHT22;40065;49.894;10.358;2023-01-15T00:58:41;11.30;99.90
54158;DHT22;40065;49.894;10.358;2023-01-15T01:03:43;11.30;99.90
54158;DHT22;40065;49.894;10.358;2023-01-15T01:08:49;11.30;99.90
54158;DHT22;40065;49.894;10.358;2023-01-15T01:13:52;11.40;99.90
54158;DHT22;40065;49.894;10.358;2023-01-15T01:18:55;11.40;99.90
54158;DHT22;40065;49.894;10.358;2023-01-15T01:23:58;11.50;99.90
54158;DHT22;40065;49.894;10.358;2023-01-15T01:29:00;11.50;99.90
54158;DHT22;40065;49.894;10.358;2023-01-15T01:34:02;11.60;99.90
54158;DHT22;40065;49.894;10.358;2023-01-15T01:39:05;11.50;99.90
54158;DHT22;40065;49.894;10.358;2023-01-15T01:49:37;11.60;99.90
54158;DHT22;40065;49.894;10.358;2023-01-15T01:54:43;11.50;99.90
54158;DHT22;40065;49.894;10.358;2023-01-15T01:59:48;11.50;99.90
54158;DHT22;40065;49.894;10.358;2023-01-15T02:04:50;11.60;99.90
54158;DHT22;40065;49.894;10.358;2023-01-15T02:09:52;11.50;99.90
54158;DHT22;40065;49.894;10.358;2023-01-15T02:15:05;11.60;99.90
54158;DHT22;40065;49.894;10.358;2023-01-15T02:20:28;11.60;99.90
54158;DHT22;40065;49.894;10.358;2023-01-15T02:30:46;11.40;99.90
54158;DHT22;40065;49.894;10.358;2023-01-15T02:35:55;11.30;99.90
54158;DHT22;40065;49.894;10.358;2023-01-15T02:41:06;11.40;99.90
54158;DHT22;40065;49.894;10.358;2023-01-15T02:46:19;11.30;99.90
54158;DHT22;40065;49.894;10.358;2023-01-15T02:51:26;11.30;99.90
54158;DHT22;40065;49.894;10.358;2023-01-15T02:56:31;11.20;99.90
54158;DHT22;40065;49.894;10.358;2023-01-15T03:01:40;11.20;99.90
54158;DHT22;40065;49.894;10.358;2023-01-15T03:06:48;11.20;99.90
54158;DHT22;40065;49.894;10.358;2023-01-15T03:12:04;11.10;99.90
54158;DHT22;40065;49.894;10.358;2023-01-15T03:17:22;11.10;99.90
54158;DHT22;40065;49.894;10.358;2023-01-15T03:22:31;11.00;99.90
54158;DHT22;40065;49.894;10.358;2023-01-15T03:27:33;10.90;99.90
54158;DHT22;40065;49.894;10.358;2023-01-15T03:32:35;10.90;99.90
54158;DHT22;40065;49.894;10.358;2023-01-15T03:37:39;10.80;99.90
54158;DHT22;40065;49.894;10.358;2023-01-15T03:42:54;10.70;99.90
54158;DHT22;40065;49.894;10.358;2023-01-15T03:48:32;10.70;99.90
54158;DHT22;40065;49.894;10.358;2023-01-15T03:53:50;10.70;99.90
54158;DHT22;40065;49.894;10.358;2023-01-15T03:59:15;10.80;99.90
54158;DHT22;40065;49.894;10.358;2023-01-15T04:04:26;10.80;99.90
54158;DHT22;40065;49.894;10.358;2023-01-15T04:09:30;10.80;99.90
54158;DHT22;40065;49.894;10.358;2023-01-15T04:14:33;10.80;99.90
54158;DHT22;40065;49.894;10.358;2023-01-15T04:19:40;10.70;99.90
54158;DHT22;40065;49.894;10.358;2023-01-15T04:24:45;10.60;99.90
54158;DHT22;40065;49.894;10.358;2023-01-15T04:29:46;10.60;99.90
54158;DHT22;40065;49.894;10.358;2023-01-15T04:34:48;10.60;99.90
54158;DHT22;40065;49.894;10.358;2023-01-15T04:39:50;10.60;99.90
54158;DHT22;40065;49.894;10.358;2023-01-15T04:44:52;10.40;99.90
54158;DHT22;40065;49.894;10.358;2023-01-15T04:49:54;9.20;99.90
54158;DHT22;40065;49.894;10.358;2023-01-15T04:54:55;8.80;99.90
54158;DHT22;40065;49.894;10.358;2023-01-15T04:59:57;8.80;99.90
54158;DHT22;40065;49.894;10.358;2023-01-15T05:04:59;8.60;99.90
54158;DHT22;40065;49.894;10.358;2023-01-15T05:10:00;8.50;99.90
54158;DHT22;40065;49.894;10.358;2023-01-15T05:15:02;8.50;99.90
54158;DHT22;40065;49.894;10.358;2023-01-15T05:20:05;8.20;99.90
54158;DHT22;40065;49.894;10.358;2023-01-15T05:25:07;8.00;99.90
54158;DHT22;40065;49.894;10.358;2023-01-15T05:30:09;7.90;99.90
54158;DHT22;40065;49.894;10.358;2023-01-15T05:35:11;7.90;99.90
54158;DHT22;40065;49.894;10.358;2023-01-15T05:40:16;7.90;99.90
54158;DHT22;40065;49.894;10.358;2023-01-15T05:45:17;7.90;99.90
54158;DHT22;40065;49.894;10.358;2023-01-15T05:50:19;7.90;99.90
54158;DHT22;40065;49.894;10.358;2023-01-15T05:55:21;7.80;99.90
54158;DHT22;40065;49.894;10.358;2023-01-15T06:00:23;7.60;99.90
54158;DHT22;40065;49.894;10.358;2023-01-15T06:05:26;7.50;99.90
54158;DHT22;40065;49.894;10.358;2023-01-15T06:10:28;7.20;99.90
54158;DHT22;40065;49.894;10.358;2023-01-15T06:15:29;7.20;99.90
54158;DHT22;40065;49.894;10.358;2023-01-15T06:20:34;7.10;99.90
54158;DHT22;40065;49.894;10.358;2023-01-15T06:25:36;7.00;99.90
54158;DHT22;40065;49.894;10.358;2023-01-15T06:30:38;7.00;99.90
54158;DHT22;40065;49.894;10.358;2023-01-15T06:35:40;7.00;99.90
54158;DHT22;40065;49.894;10.358;2023-01-15T06:40:42;6.90;99.90
54158;DHT22;40065;49.894;10.358;2023-01-15T06:45:43;6.90;99.90
54158;DHT22;40065;49.894;10.358;2023-01-15T06:51:04;6.80;99.90
54158;DHT22;40065;49.894;10.358;2023-01-15T06:56:06;6.80;99.90
54158;DHT22;40065;49.894;10.358;2023-01-15T07:01:13;6.90;99.90
54158;DHT22;40065;49.894;10.358;2023-01-15T07:06:15;6.80;99.90
54158;DHT22;40065;49.894;10.358;2023-01-15T07:11:17;6.90;99.90
54158;DHT22;40065;49.894;10.358;2023-01-15T07:16:18;6.80;99.90
54158;DHT22;40065;49.894;10.358;2023-01-15T07:21:30;7.00;99.90
54158;DHT22;40065;49.894;10.358;2023-01-15T07:26:31;6.90;99.90
54158;DHT22;40065;49.894;10.358;2023-01-15T07:31:33;6.70;99.90
54158;DHT22;40065;49.894;10.358;2023-01-15T07:36:35;6.50;99.90
54158;DHT22;40065;49.894;10.358;2023-01-15T07:41:38;6.60;99.90
54158;DHT22;40065;49.894;10.358;2023-01-15T07:46:58;6.70;99.90
54158;DHT22;40065;49.894;10.358;2023-01-15T07:52:20;6.60;99.90
54158;DHT22;40065;49.894;10.358;2023-01-15T07:57:23;6.10;99.90
54158;DHT22;40065;49.894;10.358;2023-01-15T08:02:25;6.00;99.90
54158;DHT22;40065;49.894;10.358;2023-01-15T08:07:27;6.10;99.90
54158;DHT22;40065;49.894;10.358;2023-01-15T08:12:29;6.30;99.90
54158;DHT22;40065;49.894;10.358;2023-01-15T08:17:50;6.30;99.90
54158;DHT22;40065;49.894;10.358;2023-01-15T08:22:52;6.40;99.90
54158;DHT22;40065;49.894;10.358;2023-01-15T08:27:54;6.30;99.90
54158;DHT22;40065;49.894;10.358;2023-01-15T08:33:00;6.30;99.90
54158;DHT22;40065;49.894;10.358;2023-01-15T08:38:05;6.30;99.90
54158;DHT22;40065;49.894;10.358;2023-01-15T08:43:07;6.30;99.90
54158;DHT22;40065;49.894;10.358;2023-01-15T08:48:09;6.30;99.90
54158;DHT22;40065;49.894;10.358;2023-01-15T08:53:11;6.30;99.90
54158;DHT22;40065;49.894;10.358;2023-01-15T08:58:14;6.40;99.90
54158;DHT22;40065;49.894;10.358;2023-01-15T09:03:16;6.50;99.90
54158;DHT22;40065;49.894;10.358;2023-01-15T09:08:18;6.50;99.90
54158;DHT22;40065;49.894;10.358;2023-01-15T09:13:21;6.60;99.90
54158;DHT22;40065;49.894;10.358;2023-01-15T09:18:22;6.60;99.90
54158;DHT22;40065;49.894;10.358;2023-01-15T09:23:24;6.50;99.90
54158;DHT22;40065;49.894;10.358;2023-01-15T09:28:27;6.40;99.90
54158;DHT22;40065;49.894;10.358;2023-01-15T09:33:29;6.30;99.90
54158;DHT22;40065;49.894;10.358;2023-01-15T09:38:31;6.20;99.90
54158;DHT22;40065;49.894;10.358;2023-01-15T09:43:51;6.00;99.90
54158;DHT22;40065;49.894;10.358;2023-01-15T09:59:37;6.20;99.90
54158;DHT22;40065;49.894;10.358;2023-01-15T10:04:42;6.20;99.90
54158;DHT22;40065;49.894;10.358;2023-01-15T10:09:50;6.30;99.90
54158;DHT22;40065;49.894;10.358;2023-01-15T10:20:02;6.30;99.90
54158;DHT22;40065;49.894;10.358;2023-01-15T10:25:09;6.20;99.90
54158;DHT22;40065;49.894;10.358;2023-01-15T10:30:49;6.30;99.90
54158;DHT22;40065;49.894;10.358;2023-01-15T10:36:07;6.10;99.90
54158;DHT22;40065;49.894;10.358;2023-01-15T10:46:34;6.10;99.90
54158;DHT22;40065;49.894;10.358;2023-01-15T10:52:04;6.20;99.90
54158;DHT22;40065;49.894;10.358;2023-01-15T10:57:23;6.20;99.90
54158;DHT22;40065;49.894;10.358;2023-01-15T11:07:42;5.90;99.90
54158;DHT22;40065;49.894;10.358;2023-01-15T11:13:22;5.90;99.90
54158;DHT22;40065;49.894;10.358;2023-01-15T11:18:44;6.00;99.90
54158;DHT22;40065;49.894;10.358;2023-01-15T11:24:15;6.00;99.90
54158;DHT22;40065;49.894;10.358;2023-01-15T11:29:33;6.00;99.90
54158;DHT22;40065;49.894;10.358;2023-01-15T11:34:37;6.00;99.90
54158;DHT22;40065;49.894;10.358;2023-01-15T11:39:51;6.10;99.90
54158;DHT22;40065;49.894;10.358;2023-01-15T11:44:56;6.10;99.90
54158;DHT22;40065;49.894;10.358;2023-01-15T11:50:17;5.90;99.90
54158;DHT22;40065;49.894;10.358;2023-01-15T11:55:39;6.00;99.90
54158;DHT22;40065;49.894;10.358;2023-01-15T12:00:43;5.70;99.90
54158;DHT22;40065;49.894;10.358;2023-01-15T12:06:01;5.90;99.90
54158;DHT22;40065;49.894;10.358;2023-01-15T12:11:19;6.10;99.90
54158;DHT22;40065;49.894;10.358;2023-01-15T12:17:06;6.20;99.90
54158;DHT22;40065;49.894;10.358;2023-01-15T12:38:16;6.00;99.90
54158;DHT22;40065;49.894;10.358;2023-01-15T12:43:24;6.00;99.90
54158;DHT22;40065;49.894;10.358;2023-01-15T12:48:53;6.10;99.90
54158;DHT22;40065;49.894;10.358;2023-01-15T12:54:02;6.20;99.90
54158;DHT22;40065;49.894;10.358;2023-01-15T12:59:33;6.20;99.90
54158;DHT22;40065;49.894;10.358;2023-01-15T13:05:02;6.30;99.90
54158;DHT22;40065;49.894;10.358;2023-01-15T13:10:21;6.20;99.90
54158;DHT22;40065;49.894;10.358;2023-01-15T13:15:27;6.00;99.90
54158;DHT22;40065;49.894;10.358;2023-01-15T13:26:00;5.80;99.90
54158;DHT22;40065;49.894;10.358;2023-01-15T13:31:29;5.60;99.90
54158;DHT22;40065;49.894;10.358;2023-01-15T13:36:39;5.70;99.90
54158;DHT22;40065;49.894;10.358;2023-01-15T13:41:41;5.70;99.90
54158;DHT22;40065;49.894;10.358;2023-01-15T13:47:11;5.70;99.90
54158;DHT22;40065;49.894;10.358;2023-01-15T13:52:30;5.70;99.90
54158;DHT22;40065;49.894;10.358;2023-01-15T13:57:37;5.80;99.90
54158;DHT22;40065;49.894;10.358;2023-01-15T14:02:54;5.90;99.90
54158;DHT22;40065;49.894;10.358;2023-01-15T14:07:58;6.00;99.90
54158;DHT22;40065;49.894;10.358;2023-01-15T14:18:52;6.10;99.90
54158;DHT22;40065;49.894;10.358;2023-01-15T14:34:24;6.90;99.90
54158;DHT22;40065;49.894;10.358;2023-01-15T14:39:51;7.50;99.90
54158;DHT22;40065;49.894;10.358;2023-01-15T14:45:24;7.70;99.90
54158;DHT22;40065;49.894;10.358;2023-01-15T14:50:30;7.10;99.90
54158;DHT22;40065;49.894;10.358;2023-01-15T14:55:37;6.30;99.90
54158;DHT22;40065;49.894;10.358;2023-01-15T15:00:43;6.20;99.90
54158;DHT22;40065;49.894;10.358;2023-01-15T15:05:47;6.10;99.90
54158;DHT22;40065;49.894;10.358;2023-01-15T15:10:53;5.90;99.90
54158;DHT22;40065;49.894;10.358;2023-01-15T15:16:17;5.90;99.90
54158;DHT22;40065;49.894;10.358;2023-01-15T15:21:25;5.90;99.90
54158;DHT22;40065;49.894;10.358;2023-01-15T15:26:33;5.70;99.90
54158;DHT22;40065;49.894;10.358;2023-01-15T15:31:40;5.50;99.90
54158;DHT22;40065;49.894;10.358;2023-01-15T15:36:44;5.40;99.90
54158;DHT22;40065;49.894;10.358;2023-01-15T15:41:49;5.40;99.90
54158;DHT22;40065;49.894;10.358;2023-01-15T15:47:24;5.30;99.90
54158;DHT22;40065;49.894;10.358;2023-01-15T15:52:48;5.30;99.90
54158;DHT22;40065;49.894;10.358;2023-01-15T15:57:56;5.30;99.90
54158;DHT22;40065;49.894;10.358;2023-01-15T16:03:05;5.30;99.90
54158;DHT22;40065;49.894;10.358;2023-01-15T16:08:17;5.20;99.90
54158;DHT22;40065;49.894;10.358;2023-01-15T16:13:34;5.20;99.90
54158;DHT22;40065;49.894;10.358;2023-01-15T16:18:39;5.30;99.90
54158;DHT22;40065;49.894;10.358;2023-01-15T16:24:03;5.30;99.90
54158;DHT22;40065;49.894;10.358;2023-01-15T16:29:20;5.40;99.90
54158;DHT22;40065;49.894;10.358;2023-01-15T16:34:26;5.40;99.90
54158;DHT22;40065;49.894;10.358;2023-01-15T16:39:42;5.50;99.90
54158;DHT22;40065;49.894;10.358;2023-01-15T16:44:51;5.40;99.90
54158;DHT22;40065;49.894;10.358;2023-01-15T16:50:32;5.40;99.90
54158;DHT22;40065;49.894;10.358;2023-01-15T16:55:37;5.30;99.90
54158;DHT22;40065;49.894;10.358;2023-01-15T17:05:53;5.20;99.90
54158;DHT22;40065;49.894;10.358;2023-01-15T17:11:00;5.40;99.90
54158;DHT22;40065;49.894;10.358;2023-01-15T17:21:15;5.50;99.90
54158;DHT22;40065;49.894;10.358;2023-01-15T17:26:21;5.60;99.90
54158;DHT22;40065;49.894;10.358;2023-01-15T17:31:26;5.50;99.90
54158;DHT22;40065;49.894;10.358;2023-01-15T17:36:31;5.40;99.90
54158;DHT22;40065;49.894;10.358;2023-01-15T17:41:35;5.30;99.90
54158;DHT22;40065;49.894;10.358;2023-01-15T17:46:37;5.30;99.90
54158;DHT22;40065;49.894;10.358;2023-01-15T17:51:39;5.40;99.90
54158;DHT22;40065;49.894;10.358;2023-01-15T17:56:41;5.40;99.90
54158;DHT22;40065;49.894;10.358;2023-01-15T18:02:04;5.40;99.90
54158;DHT22;40065;49.894;10.358;2023-01-15T18:07:36;5.40;99.90
54158;DHT22;40065;49.894;10.358;2023-01-15T18:12:40;5.50;99.90
54158;DHT22;40065;49.894;10.358;2023-01-15T18:17:43;5.50;99.90
54158;DHT22;40065;49.894;10.358;2023-01-15T18:22:45;5.40;99.90
54158;DHT22;40065;49.894;10.358;2023-01-15T18:27:46;5.30;99.90
54158;DHT22;40065;49.894;10.358;2023-01-15T18:32:48;5.30;99.90
54158;DHT22;40065;49.894;10.358;2023-01-15T18:37:50;5.40;99.90
54158;DHT22;40065;49.894;10.358;2023-01-15T18:42:52;5.40;99.90
54158;DHT22;40065;49.894;10.358;2023-01-15T18:48:12;5.40;99.90
54158;DHT22;40065;49.894;10.358;2023-01-15T18:53:14;5.50;99.90
54158;DHT22;40065;49.894;10.358;2023-01-15T18:58:16;5.60;99.90
54158;DHT22;40065;49.894;10.358;2023-01-15T19:03:18;5.60;99.90
54158;DHT22;40065;49.894;10.358;2023-01-15T19:08:21;5.70;99.90
54158;DHT22;40065;49.894;10.358;2023-01-15T19:13:23;5.60;99.90
54158;DHT22;40065;49.894;10.358;2023-01-15T19:18:25;5.50;99.90
54158;DHT22;40065;49.894;10.358;2023-01-15T19:23:42;5.50;99.90
54158;DHT22;40065;49.894;10.358;2023-01-15T19:28:44;5.50;99.90
54158;DHT22;40065;49.894;10.358;2023-01-15T19:33:45;5.40;99.90
54158;DHT22;40065;49.894;10.358;2023-01-15T19:38:47;5.20;99.90
54158;DHT22;40065;49.894;10.358;2023-01-15T19:43:49;5.10;99.90
54158;DHT22;40065;49.894;10.358;2023-01-15T19:49:14;5.00;99.90
54158;DHT22;40065;49.894;10.358;2023-01-15T19:54:37;5.00;99.90
54158;DHT22;40065;49.894;10.358;2023-01-15T19:59:58;5.00;99.90
54158;DHT22;40065;49.894;10.358;2023-01-15T20:05:00;4.90;99.90
54158;DHT22;40065;49.894;10.358;2023-01-15T20:10:07;4.90;99.90
54158;DHT22;40065;49.894;10.358;2023-01-15T20:15:10;4.80;99.90
54158;DHT22;40065;49.894;10.358;2023-01-15T20:20:12;4.70;99.90
54158;DHT22;40065;49.894;10.358;2023-01-15T20:25:14;4.70;99.90
54158;DHT22;40065;49.894;10.358;2023-01-15T20:30:17;4.60;99.90
54158;DHT22;40065;49.894;10.358;2023-01-15T20:35:24;4.60;99.90
54158;DHT22;40065;49.894;10.358;2023-01-15T20:40:27;4.50;99.90
54158;DHT22;40065;49.894;10.358;2023-01-15T20:45:29;4.50;99.90
54158;DHT22;40065;49.894;10.358;2023-01-15T20:50:33;4.40;99.90
54158;DHT22;40065;49.894;10.358;2023-01-15T20:55:37;4.40;99.90
54158;DHT22;40065;49.894;10.358;2023-01-15T21:01:02;4.40;99.90
54158;DHT22;40065;49.894;10.358;2023-01-15T21:06:06;4.50;99.90
54158;DHT22;40065;49.894;10.358;2023-01-15T21:11:08;4.50;99.90
54158;DHT22;40065;49.894;10.358;2023-01-15T21:16:11;4.50;99.90
54158;DHT22;40065;49.894;10.358;2023-01-15T21:21:18;4.40;99.90
54158;DHT22;40065;49.894;10.358;2023-01-15T21:26:20;4.40;99.90
54158;DHT22;40065;49.894;10.358;2023-01-15T21:31:21;4.30;99.90
54158;DHT22;40065;49.894;10.358;2023-01-15T21:36:23;4.30;99.90
54158;DHT22;40065;49.894;10.358;2023-01-15T21:41:25;4.40;99.90
54158;DHT22;40065;49.894;10.358;2023-01-15T21:46:46;4.40;99.90
54158;DHT22;40065;49.894;10.358;2023-01-15T21:51:48;4.40;99.90
54158;DHT22;40065;49.894;10.358;2023-01-15T21:56:49;4.40;99.90
54158;DHT22;40065;49.894;10.358;2023-01-15T22:01:52;4.50;99.90
54158;DHT22;40065;49.894;10.358;2023-01-15T22:06:55;4.50;99.90
54158;DHT22;40065;49.894;10.358;2023-01-15T22:11:57;4.60;99.90
54158;DHT22;40065;49.894;10.358;2023-01-15T22:17:00;4.50;99.90
54158;DHT22;40065;49.894;10.358;2023-01-15T22:22:05;4.60;99.90
54158;DHT22;40065;49.894;10.358;2023-01-15T22:27:14;4.50;99.90
54158;DHT22;40065;49.894;10.358;2023-01-15T22:32:16;4.30;99.90
54158;DHT22;40065;49.894;10.358;2023-01-15T22:37:18;4.20;99.90
54158;DHT22;40065;49.894;10.358;2023-01-15T22:42:20;4.10;99.90
54158;DHT22;40065;49.894;10.358;2023-01-15T22:47:25;4.20;99.90
54158;DHT22;40065;49.894;10.358;2023-01-15T22:52:27;4.20;99.90
54158;DHT22;40065;49.894;10.358;2023-01-15T22:57:29;4.30;99.90
54158;DHT22;40065;49.894;10.358;2023-01-15T23:02:31;4.50;99.90
54158;DHT22;40065;49.894;10.358;2023-01-15T23:07:52;4.40;99.90
54158;DHT22;40065;49.894;10.358;2023-01-15T23:12:53;4.30;99.90
54158;DHT22;40065;49.894;10.358;2023-01-15T23:17:55;4.50;99.90
54158;DHT22;40065;49.894;10.358;2023-01-15T23:22:57;4.50;99.90
54158;DHT22;40065;49.894;10.358;2023-01-15T23:27:59;4.70;99.90
54158;DHT22;40065;49.894;10.358;2023-01-15T23:33:00;4.70;99.90
54158;DHT22;40065;49.894;10.358;2023-01-15T23:38:02;4.70;99.90
54158;DHT22;40065;49.894;10.358;2023-01-15T23:43:04;4.80;99.90
54158;DHT22;40065;49.894;10.358;2023-01-15T23:48:25;4.80;99.90
54158;DHT22;40065;49.894;10.358;2023-01-15T23:53:27;4.80;99.90
54158;DHT22;40065;49.894;10.358;2023-01-15T23:58:29;4.90;99.90
